Time;durP1;ratioP1;P1;durP2;ratioP2;P2;SDS_P1;SDS_P2;PMS_P1;PMS_P2;Temp;Humidity;BMP_temperature;BMP_pressure;BME280_temperature;BME280_humidity;BME280_pressure;Samples;Min_cycle;Max_cycle;Signal;HPM_P1;HPM_P2
2022/08/27 00:00:17;;;;;;;13.93;5.15;;;;;;;28.02;48.84;97512.94;4426073;32;20169;-80
2022/08/27 00:02:44;;;;;;;17.35;5.05;;;;;;;28.82;46.78;97512.62;4426181;32;20110;-80
2022/08/27 00:05:13;;;;;;;20.37;5.75;;;;;;;29.21;45.39;97513.91;4425429;32;20085;-80
2022/08/27 00:07:41;;;;;;;20.52;5.45;;;;;;;28.36;47.31;97513.06;4426075;32;20074;-80
2022/08/27 00:10:12;;;;;;;17.55;5.37;;;;;;;28.62;46.75;97514.31;4425994;32;20149;-80
2022/08/27 00:12:40;;;;;;;24.50;5.22;;;;;;;28.73;46.03;97517.28;4425852;32;20112;-80
2022/08/27 00:15:08;;;;;;;16.35;4.90;;;;;;;28.89;46.03;97518.00;4425951;32;20140;-80
2022/08/27 00:17:37;;;;;;;17.40;5.12;;;;;;;29.02;45.82;97510.13;4426126;32;20112;-80
2022/08/27 00:20:06;;;;;;;13.70;4.78;;;;;;;28.88;45.94;97519.84;4425375;32;20115;-80
2022/08/27 00:22:33;;;;;;;15.38;4.80;;;;;;;29.17;45.46;97520.66;4426024;32;20117;-80
2022/08/27 00:25:00;;;;;;;18.08;5.35;;;;;;;29.02;45.50;97518.09;4424783;32;20152;-80
2022/08/27 00:27:27;;;;;;;14.23;5.18;;;;;;;29.04;45.35;97514.25;4425746;32;20096;-80
2022/08/27 00:29:54;;;;;;;13.50;5.25;;;;;;;29.14;45.77;97513.91;4425880;32;20094;-80
2022/08/27 00:32:21;;;;;;;14.13;5.32;;;;;;;28.90;46.50;97517.00;4425903;32;20471;-80
2022/08/27 00:34:48;;;;;;;13.23;4.68;;;;;;;28.61;47.19;97515.34;4425399;32;20172;-80
2022/08/27 00:37:15;;;;;;;13.52;5.18;;;;;;;28.36;47.84;97517.56;4426023;32;20157;-80
2022/08/27 00:39:42;;;;;;;16.02;5.78;;;;;;;28.52;47.44;97518.13;4424874;32;20112;-80
2022/08/27 00:42:09;;;;;;;14.95;5.10;;;;;;;28.23;48.19;97519.06;4425555;32;20102;-80
2022/08/27 00:44:37;;;;;;;14.57;5.60;;;;;;;28.60;47.25;97511.84;4425577;32;20168;-78
2022/08/27 00:47:10;;;;;;;21.83;5.65;;;;;;;28.41;47.68;97507.22;4425586;32;20083;-78
2022/08/27 00:49:46;;;;;;;14.30;5.53;;;;;;;28.29;48.14;97514.06;4425886;32;20165;-78
2022/08/27 00:52:22;;;;;;;21.35;5.30;;;;;;;29.12;45.92;97517.75;4424800;32;20113;-79
2022/08/27 00:55:05;;;;;;;13.65;5.62;;;;;;;28.18;48.11;97515.34;4425384;32;20093;-80
2022/08/27 00:57:35;;;;;;;16.33;4.95;;;;;;;27.54;49.57;97515.19;4425665;32;20484;-80
2022/08/27 01:00:05;;;;;;;14.32;5.07;;;;;;;28.36;47.14;97515.72;4424444;32;20123;-80
2022/08/27 01:02:32;;;;;;;17.20;5.20;;;;;;;27.86;48.36;97520.12;4425385;32;20569;-80
2022/08/27 01:05:05;;;;;;;15.38;5.70;;;;;;;27.69;48.87;97516.03;4425213;32;20085;-80
2022/08/27 01:07:37;;;;;;;13.10;5.50;;;;;;;28.30;48.06;97518.34;4424680;32;20138;-80
2022/08/27 01:10:07;;;;;;;13.95;5.43;;;;;;;28.18;49.01;97518.81;4425396;32;20455;-80
2022/08/27 01:12:35;;;;;;;16.62;5.22;;;;;;;28.28;48.78;97518.50;4425717;32;20093;-80
2022/08/27 01:15:08;;;;;;;17.35;5.43;;;;;;;28.43;48.08;97513.16;4423976;32;20149;-80
2022/08/27 01:17:38;;;;;;;13.07;5.95;;;;;;;28.16;48.30;97512.03;4424611;32;20085;-80
2022/08/27 01:20:11;;;;;;;19.50;5.70;;;;;;;27.62;49.64;97523.87;4424305;32;20501;-80
2022/08/27 01:23:23;;;;;;;11.73;5.40;;;;;;;27.68;49.91;97522.34;4436875;32;20124;-80
2022/08/27 01:25:50;;;;;;;13.57;5.85;;;;;;;27.49;50.85;97517.59;4392806;32;20147;-80
2022/08/27 01:28:18;;;;;;;15.48;5.40;;;;;;;27.23;51.43;97512.78;4392996;32;20126;-80
2022/08/27 01:30:49;;;;;;;14.32;5.62;;;;;;;28.05;49.74;97516.00;4409227;32;20483;-80
2022/08/27 01:33:18;;;;;;;12.85;5.35;;;;;;;28.31;48.38;97519.97;4425587;32;20141;-80
2022/08/27 01:35:47;;;;;;;13.10;5.32;;;;;;;28.29;48.38;97517.53;4425217;32;20101;-80
2022/08/27 01:38:15;;;;;;;14.65;5.68;;;;;;;28.05;48.88;97515.19;4425271;32;20472;-80
2022/08/27 01:41:00;;;;;;;14.05;5.10;;;;;;;28.21;48.03;97513.12;4425363;32;20098;-80
2022/08/27 01:43:28;;;;;;;13.25;4.45;;;;;;;27.90;48.57;97523.22;4425212;32;20136;-80
2022/08/27 01:45:55;;;;;;;14.00;4.87;;;;;;;27.71;48.99;97514.03;4437026;32;20108;-80
2022/08/27 01:48:22;;;;;;;15.23;5.47;;;;;;;27.89;48.39;97510.97;4425425;32;20138;-80
2022/08/27 01:50:50;;;;;;;12.18;5.22;;;;;;;27.75;48.80;97511.81;4424680;32;20244;-80
2022/08/27 01:53:20;;;;;;;14.05;5.97;;;;;;;27.60;49.19;97515.28;4425398;32;20133;-80
2022/08/27 01:55:48;;;;;;;15.05;4.93;;;;;;;27.85;47.98;97512.34;4425219;32;20491;-80
2022/08/27 01:58:17;;;;;;;15.27;5.18;;;;;;;28.32;46.90;97519.78;4425148;32;20659;-80
2022/08/27 02:00:46;;;;;;;14.80;5.12;;;;;;;27.98;47.55;97522.28;4425091;32;20364;-80
2022/08/27 02:03:17;;;;;;;13.75;5.07;;;;;;;27.91;47.95;97515.06;4424331;32;20119;-80
2022/08/27 02:05:46;;;;;;;13.82;4.95;;;;;;;28.16;47.13;97518.16;4424599;32;20108;-80
2022/08/27 02:08:14;;;;;;;14.45;5.57;;;;;;;27.88;47.69;97510.16;4425289;32;20152;-80
2022/08/27 02:10:43;;;;;;;12.55;5.05;;;;;;;27.60;48.63;97522.44;4425229;32;20350;-80
2022/08/27 02:13:12;;;;;;;13.93;5.47;;;;;;;27.29;49.46;97520.00;4424955;32;20145;-80
2022/08/27 02:15:40;;;;;;;12.25;5.25;;;;;;;27.62;48.65;97526.53;4425018;32;20456;-80
2022/08/27 02:18:08;;;;;;;13.02;5.62;;;;;;;27.74;48.37;97516.28;4423802;32;20575;-80
2022/08/27 02:20:36;;;;;;;17.02;5.15;;;;;;;28.14;47.42;97512.22;4424929;32;20447;-80
2022/08/27 02:23:03;;;;;;;15.85;5.22;;;;;;;28.56;46.15;97513.25;4425215;32;20152;-80
2022/08/27 02:25:31;;;;;;;15.18;5.15;;;;;;;28.47;45.89;97515.22;4424653;32;20180;-80
2022/08/27 02:27:58;;;;;;;10.68;5.15;;;;;;;27.91;47.17;97509.75;4425134;32;20156;-80
2022/08/27 02:30:27;;;;;;;13.48;5.30;;;;;;;27.73;48.13;97509.34;4425076;32;20101;-80
2022/08/27 02:32:54;;;;;;;11.50;5.20;;;;;;;28.38;46.75;97507.56;4424742;32;20086;-80
2022/08/27 02:35:23;;;;;;;16.62;5.57;;;;;;;28.06;47.74;97504.41;4424864;32;20172;-80
2022/08/27 02:37:50;;;;;;;15.07;5.22;;;;;;;27.79;48.67;97502.50;4425067;32;20137;-80
2022/08/27 02:40:19;;;;;;;14.00;5.05;;;;;;;27.86;48.75;97503.38;4424501;32;20109;-80
2022/08/27 02:42:46;;;;;;;14.90;5.68;;;;;;;27.82;48.70;97508.22;4424902;32;20200;-80
2022/08/27 02:45:14;;;;;;;15.65;5.43;;;;;;;27.44;49.96;97504.91;4424711;32;20098;-80
2022/08/27 02:47:41;;;;;;;13.43;5.60;;;;;;;27.71;48.80;97499.94;4424544;32;20089;-80
2022/08/27 02:50:09;;;;;;;16.00;5.30;;;;;;;27.91;48.50;97504.47;4424676;32;20383;-80
2022/08/27 02:52:35;;;;;;;12.10;5.25;;;;;;;27.90;48.50;97513.44;4423669;32;20123;-80
2022/08/27 02:55:04;;;;;;;14.65;5.60;;;;;;;27.82;48.67;97513.53;4435833;32;20161;-80
2022/08/27 02:57:31;;;;;;;15.57;5.40;;;;;;;27.59;48.99;97518.94;4424811;32;20404;-80
2022/08/27 03:00:09;;;;;;;16.58;5.40;;;;;;;27.50;49.23;97521.88;4424587;32;20113;-80
2022/08/27 03:02:36;;;;;;;16.10;5.35;;;;;;;27.20;50.17;97519.25;4425389;32;20417;-80
2022/08/27 03:05:05;;;;;;;12.77;5.15;;;;;;;27.07;50.21;97514.59;4426122;32;20141;-80
2022/08/27 03:07:32;;;;;;;17.15;5.60;;;;;;;27.44;48.78;97514.69;4426241;32;20158;-80
2022/08/27 03:09:59;;;;;;;13.85;5.37;;;;;;;27.25;49.32;97516.91;4426428;32;20137;-80
2022/08/27 03:12:26;;;;;;;14.87;5.78;;;;;;;26.91;49.83;97516.59;4426593;32;20575;-80
2022/08/27 03:14:53;;;;;;;12.45;5.03;;;;;;;26.46;51.36;97516.50;4425882;32;20093;-80
2022/08/27 03:20:07;;;;;;;12.00;4.80;;;;;;;26.70;51.12;97514.66;4426313;32;20105;-80
2022/08/27 03:22:34;;;;;;;15.80;4.90;;;;;;;27.13;49.11;97518.38;4426059;32;20145;-80
2022/08/27 03:25:02;;;;;;;13.62;5.32;;;;;;;26.84;49.99;97511.19;4412400;32;20109;-80
2022/08/27 03:27:29;;;;;;;15.05;5.28;;;;;;;27.25;48.78;97516.91;4425360;32;20086;-80
2022/08/27 03:29:56;;;;;;;16.50;5.30;;;;;;;27.76;46.79;97506.34;4424758;32;20512;-80
2022/08/27 03:32:29;;;;;;;15.18;5.00;;;;;;;27.87;46.36;97511.16;4426403;32;20146;-80
2022/08/27 03:34:57;;;;;;;16.65;4.70;;;;;;;28.29;45.05;97512.22;4426148;32;20141;-80
2022/08/27 03:37:25;;;;;;;16.58;5.68;;;;;;;27.53;46.91;97509.09;4426068;32;20408;-80
2022/08/27 03:39:52;;;;;;;15.38;5.25;;;;;;;27.86;46.34;97503.38;4426054;32;20118;-80
2022/08/27 03:42:20;;;;;;;16.95;5.35;;;;;;;27.68;47.19;97501.16;4426022;32;20093;-80
2022/08/27 03:44:47;;;;;;;13.35;5.47;;;;;;;27.28;48.66;97505.09;4426126;32;20465;-80
2022/08/27 03:47:14;;;;;;;11.52;4.82;;;;;;;27.43;48.53;97518.31;4426332;32;20104;-80
2022/08/27 03:49:41;;;;;;;15.35;5.40;;;;;;;27.38;48.36;97516.25;4425754;32;20146;-80
2022/08/27 03:52:08;;;;;;;15.63;5.40;;;;;;;26.88;49.49;97512.47;4426270;32;20530;-80
2022/08/27 03:54:37;;;;;;;12.50;5.45;;;;;;;27.32;48.21;97511.66;4424867;32;20107;-80
2022/08/27 03:57:04;;;;;;;13.65;5.60;;;;;;;27.61;47.51;97511.63;4425950;32;20500;-80
2022/08/27 03:59:32;;;;;;;15.75;5.50;;;;;;;26.70;49.87;97518.13;4426124;32;20165;-80
2022/08/27 04:02:00;;;;;;;16.90;5.35;;;;;;;27.04;48.99;97514.97;4426155;32;20124;-80
2022/08/27 04:04:27;;;;;;;18.90;5.57;;;;;;;27.34;48.77;97520.28;4425378;32;20171;-80
2022/08/27 04:06:54;;;;;;;16.08;5.65;;;;;;;27.37;49.33;97523.37;4426198;32;20139;-80
2022/08/27 04:09:24;;;;;;;19.05;6.45;;;;;;;27.03;50.55;97518.63;4426160;32;20105;-80
2022/08/27 04:11:52;;;;;;;16.73;5.15;;;;;;;27.73;48.57;97519.94;4424638;32;20101;-80
2022/08/27 04:14:19;;;;;;;13.52;5.03;;;;;;;27.33;49.23;97523.94;4425915;32;20512;-80
2022/08/27 04:16:54;;;;;;;12.52;4.80;;;;;;;27.27;48.69;97525.47;4426061;32;20468;-80
2022/08/27 04:19:23;;;;;;;17.60;5.25;;;;;;;26.21;50.13;97531.72;4425694;32;20097;-80
2022/08/27 04:21:58;;;;;;;17.37;5.20;;;;;;;25.78;51.64;97530.50;4437230;32;20136;-80
2022/08/27 04:24:26;;;;;;;13.73;5.10;;;;;;;25.31;53.44;97530.53;4425638;32;20157;-80
2022/08/27 04:26:53;;;;;;;13.95;4.65;;;;;;;25.66;52.22;97535.31;4426018;32;20081;-80
2022/08/27 04:29:20;;;;;;;13.02;4.90;;;;;;;24.89;54.42;97534.25;4425817;32;20472;-80
2022/08/27 04:31:47;;;;;;;16.02;5.40;;;;;;;25.13;54.08;97530.75;4437165;32;20105;-80
2022/08/27 04:34:15;;;;;;;13.60;4.75;;;;;;;25.63;52.97;97530.38;4425858;32;20173;-80
2022/08/27 04:36:42;;;;;;;17.17;5.22;;;;;;;25.95;51.97;97537.34;4424785;32;20157;-80
2022/08/27 04:39:09;;;;;;;16.98;5.50;;;;;;;26.06;51.24;97528.19;4425453;32;20154;-80
2022/08/27 04:41:36;;;;;;;14.80;5.15;;;;;;;26.75;49.37;97528.97;4425859;32;20115;-80
2022/08/27 04:44:07;;;;;;;15.93;5.15;;;;;;;27.22;47.57;97535.81;4425815;32;20086;-80
2022/08/27 04:46:36;;;;;;;11.35;4.87;;;;;;;27.45;46.57;97529.59;4437112;32;20165;-80
2022/08/27 04:49:09;;;;;;;12.68;5.10;;;;;;;27.27;47.81;97520.19;4425754;32;20108;-80
2022/08/27 04:51:38;;;;;;;19.33;5.03;;;;;;;27.43;47.44;97532.41;4425952;32;20109;-80
2022/08/27 04:54:06;;;;;;;13.55;4.80;;;;;;;27.20;48.67;97523.72;4425311;32;20109;-80
2022/08/27 04:56:33;;;;;;;17.92;5.20;;;;;;;28.32;45.47;97518.97;4425664;32;20090;-80
2022/08/27 04:59:05;;;;;;;17.65;4.97;;;;;;;28.51;44.74;97526.28;4425697;32;20091;-80
2022/08/27 05:01:32;;;;;;;22.27;5.20;;;;;;;28.34;45.05;97528.38;4425414;32;20106;-80
2022/08/27 05:03:59;;;;;;;15.73;5.45;;;;;;;28.34;45.03;97531.03;4425648;32;20140;-80
2022/08/27 05:06:27;;;;;;;15.07;5.53;;;;;;;28.80;44.41;97535.88;4425491;32;20099;-80
2022/08/27 05:08:54;;;;;;;14.48;4.82;;;;;;;28.67;45.06;97543.75;4424237;32;20106;-80
2022/08/27 05:11:25;;;;;;;14.38;4.60;;;;;;;28.57;44.88;97548.56;4425696;32;20097;-80
2022/08/27 05:13:52;;;;;;;16.67;4.85;;;;;;;28.69;44.97;97539.87;4425364;32;20102;-80
2022/08/27 05:16:21;;;;;;;12.02;4.20;;;;;;;29.47;43.50;97550.44;4425650;32;20081;-80
2022/08/27 05:18:49;;;;;;;20.45;4.87;;;;;;;30.34;41.14;97553.22;4425427;32;20141;-80
2022/08/27 05:21:18;;;;;;;12.75;4.53;;;;;;;31.05;39.22;97552.63;4425303;32;20158;-80
2022/08/27 05:23:46;;;;;;;14.73;4.95;;;;;;;31.86;37.60;97557.56;4425588;32;20144;-80
2022/08/27 05:26:13;;;;;;;13.10;5.05;;;;;;;31.83;37.40;97560.66;4424919;32;20444;-80
2022/08/27 05:28:41;;;;;;;16.98;4.53;;;;;;;32.34;35.74;97559.81;4425207;32;20090;-80
2022/08/27 05:31:10;;;;;;;12.63;4.40;;;;;;;32.90;34.94;97546.44;4425491;32;20101;-80
2022/08/27 05:33:38;;;;;;;12.90;4.55;;;;;;;33.19;34.35;97562.81;4425555;32;20100;-80
2022/08/27 05:36:06;;;;;;;14.90;4.45;;;;;;;33.36;34.18;97555.88;4424029;32;20157;-80
2022/08/27 05:38:33;;;;;;;16.87;4.32;;;;;;;34.01;33.43;97553.44;4425549;32;20142;-80
2022/08/27 05:41:11;;;;;;;15.73;4.60;;;;;;;34.84;32.37;97551.81;4425279;32;20475;-78
2022/08/27 05:43:40;;;;;;;10.80;4.18;;;;;;;35.60;30.43;97558.91;4424958;32;20118;-78
2022/08/27 05:46:13;;;;;;;12.93;4.30;;;;;;;35.99;29.17;97561.87;4425426;32;20110;-78
2022/08/27 05:48:40;;;;;;;13.80;3.92;;;;;;;36.09;28.93;97557.50;4425259;32;20113;-78
2022/08/27 05:51:15;;;;;;;16.50;4.62;;;;;;;36.05;29.16;97561.72;4425382;32;20149;-78
2022/08/27 05:53:57;;;;;;;18.95;5.35;;;;;;;36.31;28.49;97567.56;4425417;32;20436;-78
2022/08/27 05:56:27;;;;;;;13.52;4.22;;;;;;;35.23;29.73;97561.06;4425092;32;20125;-78
2022/08/27 06:01:44;;;;;;;12.82;4.40;;;;;;;34.26;31.19;97553.31;4425371;32;20447;-78
2022/08/27 06:04:12;;;;;;;14.07;4.57;;;;;;;34.50;30.97;97543.50;4425040;32;20090;-78
2022/08/27 06:06:44;;;;;;;12.20;3.80;;;;;;;33.20;32.89;97551.91;4425231;32;20118;-78
2022/08/27 06:09:13;;;;;;;11.57;4.10;;;;;;;32.78;33.10;97546.31;4425018;32;20241;-78
2022/08/27 06:11:40;;;;;;;14.52;4.00;;;;;;;32.59;34.21;97544.63;4424872;32;20503;-78
2022/08/27 06:14:08;;;;;;;11.85;4.43;;;;;;;31.75;32.24;97548.38;4425131;32;20089;-78
2022/08/27 06:16:36;;;;;;;15.75;4.03;;;;;;;31.47;32.13;97548.66;4425285;32;20101;-78
2022/08/27 06:19:04;;;;;;;12.55;3.92;;;;;;;31.30;32.11;97550.16;4424772;32;20146;-78
2022/08/27 06:21:32;;;;;;;11.63;3.75;;;;;;;31.57;31.84;97554.37;4424992;32;20085;-78
2022/08/27 06:23:59;;;;;;;15.52;4.20;;;;;;;31.76;32.19;97559.88;4424764;32;20503;-78
2022/08/27 06:26:26;;;;;;;14.75;3.78;;;;;;;31.81;31.50;97552.88;4425147;32;20533;-78
2022/08/27 06:28:54;;;;;;;11.15;3.50;;;;;;;31.88;31.61;97558.16;4425074;32;20428;-78
2022/08/27 06:31:23;;;;;;;13.95;4.20;;;;;;;31.22;31.85;97561.03;4424747;32;20128;-78
2022/08/27 06:33:52;;;;;;;11.52;3.70;;;;;;;31.16;31.85;97564.50;4424871;32;20104;-78
2022/08/27 06:36:24;;;;;;;10.25;3.40;;;;;;;31.79;31.92;97565.59;4424083;32;20095;-78
2022/08/27 06:38:53;;;;;;;16.23;4.20;;;;;;;32.45;32.18;97564.44;4424481;32;20145;-78
2022/08/27 06:41:22;;;;;;;12.23;3.87;;;;;;;33.22;30.30;97563.19;4424849;32;20149;-78
2022/08/27 06:43:50;;;;;;;12.07;4.10;;;;;;;33.28;29.76;97562.28;4424895;32;20103;-78
2022/08/27 06:46:20;;;;;;;10.18;3.65;;;;;;;33.02;29.15;97567.91;4424642;32;20134;-78
2022/08/27 06:48:51;;;;;;;13.57;3.70;;;;;;;32.85;29.51;97567.63;4424936;32;20160;-78
2022/08/27 06:51:25;;;;;;;8.70;3.28;;;;;;;33.34;29.17;97564.09;4424986;32;20162;-78
2022/08/27 06:53:59;;;;;;;10.18;3.72;;;;;;;32.94;29.24;97573.53;4424630;32;20224;-78
2022/08/27 06:56:27;;;;;;;10.02;3.47;;;;;;;31.32;31.45;97575.56;4424721;32;20104;-78
2022/08/27 06:58:56;;;;;;;13.95;4.62;;;;;;;31.33;31.83;97565.72;4424366;32;20141;-78
2022/08/27 07:01:26;;;;;;;10.30;3.95;;;;;;;32.40;30.57;97569.59;4424565;32;20105;-78
2022/08/27 07:03:57;;;;;;;11.88;3.72;;;;;;;31.90;30.68;97567.63;4424636;32;20131;-78
2022/08/27 07:06:26;;;;;;;14.20;3.75;;;;;;;32.45;30.62;97567.13;4422919;32;20074;-78
2022/08/27 07:08:53;;;;;;;14.38;3.60;;;;;;;31.85;30.78;97578.09;4424456;32;20098;-78
2022/08/27 07:11:20;;;;;;;12.00;3.50;;;;;;;32.50;30.57;97564.59;4424551;32;20102;-78
2022/08/27 07:13:48;;;;;;;12.95;3.80;;;;;;;32.72;30.01;97570.41;4424038;32;20094;-78
2022/08/27 07:16:19;;;;;;;13.02;3.62;;;;;;;32.26;29.15;97576.84;4424584;32;20118;-78
2022/08/27 07:18:55;;;;;;;10.55;3.70;;;;;;;32.19;29.54;97573.41;4424306;32;20102;-78
2022/08/27 07:21:22;;;;;;;15.05;4.18;;;;;;;31.58;30.41;97580.03;4435614;32;20419;-78
2022/08/27 07:23:51;;;;;;;11.30;3.40;;;;;;;31.30;31.25;97580.28;4424132;32;20200;-78
2022/08/27 07:26:19;;;;;;;9.40;3.50;;;;;;;32.03;30.45;97582.75;4424270;32;20077;-78
2022/08/27 07:28:47;;;;;;;10.45;4.03;;;;;;;33.16;29.58;97587.31;4423844;32;20100;-78
2022/08/27 07:31:18;;;;;;;15.40;3.95;;;;;;;34.58;27.40;97599.44;4424393;32;20153;-78
2022/08/27 07:33:45;;;;;;;8.82;3.30;;;;;;;34.21;27.49;97588.00;4424115;32;20093;-78
2022/08/27 07:36:19;;;;;;;11.48;3.20;;;;;;;33.34;28.19;97590.00;4424270;32;20073;-79
2022/08/27 07:38:47;;;;;;;13.30;3.75;;;;;;;33.54;27.92;97592.50;4424219;32;20377;-80
2022/08/27 07:41:25;;;;;;;11.38;3.67;;;;;;;33.35;27.47;97586.31;4423929;32;20527;-78
2022/08/27 07:46:43;;;;;;;9.88;3.87;;;;;;;33.84;26.44;97588.03;4424089;32;20082;-78
2022/08/27 07:49:14;;;;;;;15.68;3.55;;;;;;;34.76;26.30;97593.16;4425058;32;20172;-78
2022/08/27 07:51:41;;;;;;;11.02;3.62;;;;;;;34.38;26.37;97598.91;4426088;32;20101;-78
2022/08/27 07:54:08;;;;;;;8.35;3.25;;;;;;;34.67;25.23;97597.25;4426078;32;20089;-78
2022/08/27 07:56:35;;;;;;;12.63;3.58;;;;;;;34.51;25.98;97594.16;4425916;32;20602;-78
2022/08/27 07:59:02;;;;;;;10.95;3.60;;;;;;;34.23;26.12;97596.59;4426114;32;20161;-78
2022/08/27 08:01:29;;;;;;;10.68;3.67;;;;;;;33.65;26.94;97592.56;4426095;32;20108;-78
2022/08/27 08:03:56;;;;;;;12.75;3.50;;;;;;;33.94;26.62;97593.72;4425637;32;20106;-78
2022/08/27 08:06:23;;;;;;;13.50;3.83;;;;;;;36.04;23.67;97596.84;4425823;32;20078;-78
2022/08/27 08:08:50;;;;;;;17.90;3.85;;;;;;;34.78;25.75;97586.53;4424830;32;20828;-78
2022/08/27 08:11:19;;;;;;;12.90;3.65;;;;;;;34.29;26.32;97589.53;4425790;32;20108;-78
2022/08/27 08:13:46;;;;;;;8.73;3.30;;;;;;;35.18;25.16;97593.91;4425898;32;20125;-78
2022/08/27 08:16:13;;;;;;;12.63;4.15;;;;;;;36.54;24.02;97601.56;4425676;32;20078;-78
2022/08/27 08:18:40;;;;;;;14.05;3.62;;;;;;;37.20;23.01;97597.25;4426072;32;20154;-78
2022/08/27 08:21:10;;;;;;;8.00;3.37;;;;;;;38.63;21.70;97603.34;4425879;32;20103;-78
2022/08/27 08:23:38;;;;;;;10.60;3.60;;;;;;;36.60;23.56;97603.28;4425683;32;20104;-78
2022/08/27 08:26:05;;;;;;;12.13;3.50;;;;;;;36.99;23.44;97602.34;4424863;32;20460;-78
2022/08/27 08:28:33;;;;;;;12.43;3.75;;;;;;;36.03;24.59;97608.66;4425998;32;20156;-78
2022/08/27 08:31:00;;;;;;;10.65;3.42;;;;;;;37.33;22.95;97605.84;4425601;32;20097;-78
2022/08/27 08:33:28;;;;;;;12.13;4.00;;;;;;;35.80;24.69;97602.25;4425976;32;20085;-78
2022/08/27 08:36:05;;;;;;;16.55;3.95;;;;;;;34.45;26.48;97602.28;4425933;32;20413;-78
2022/08/27 08:38:32;;;;;;;13.88;3.80;;;;;;;34.49;26.85;97600.81;4425607;32;20155;-78
2022/08/27 08:40:59;;;;;;;10.35;3.75;;;;;;;35.53;25.51;97610.03;4425826;32;20149;-78
2022/08/27 08:43:38;;;;;;;15.70;3.60;;;;;;;35.73;25.43;97606.97;4425887;32;20420;-78
2022/08/27 08:46:10;;;;;;;13.52;3.80;;;;;;;36.54;24.85;97606.94;4425607;32;20073;-77
2022/08/27 08:48:41;;;;;;;10.90;3.42;;;;;;;36.76;24.25;97610.53;4424807;32;20117;-77
2022/08/27 08:51:35;;;;;;;13.32;3.90;;;;;;;36.75;24.52;97607.03;4425522;32;20158;-77
2022/08/27 08:54:04;;;;;;;12.63;3.80;;;;;;;37.85;23.35;97607.34;4423748;32;20172;-77
2022/08/27 08:56:59;;;;;;;17.17;4.55;;;;;;;36.13;25.48;97603.47;4424622;32;20391;-77
2022/08/27 08:59:33;;;;;;;14.80;3.65;;;;;;;37.18;24.19;97599.38;4423594;32;20142;-77
2022/08/27 09:02:00;;;;;;;12.20;3.78;;;;;;;38.59;22.46;97610.31;4424591;32;20170;-77
2022/08/27 09:04:28;;;;;;;11.60;4.03;;;;;;;39.13;21.81;97609.44;4425296;32;20109;-77
2022/08/27 09:07:34;;;;;;;9.38;3.28;;;;;;;36.46;24.86;97606.25;4425521;32;20104;-77
2022/08/27 09:10:20;;;;;;;16.50;3.93;;;;;;;37.47;24.19;97603.62;4392987;32;20432;-77
2022/08/27 09:12:47;;;;;;;12.13;3.78;;;;;;;36.93;25.17;97603.34;4423024;32;20174;-77
2022/08/27 09:15:25;;;;;;;16.30;3.90;;;;;;;37.43;24.76;97609.72;4425635;32;20126;-77
2022/08/27 09:18:03;;;;;;;10.80;3.45;;;;;;;36.90;25.06;97605.69;4424508;32;20097;-77
2022/08/27 09:20:30;;;;;;;9.02;3.20;;;;;;;36.66;24.90;97600.44;4425289;32;20112;-77
2022/08/27 09:23:06;;;;;;;15.02;3.90;;;;;;;38.23;23.48;97597.56;4425479;32;20190;-77
2022/08/27 09:25:36;;;;;;;18.75;4.12;;;;;;;38.22;24.20;97590.56;4424397;32;20097;-78
2022/08/27 09:31:06;;;;;;;12.48;3.33;;;;;;;37.70;25.13;97590.97;4425492;32;20157;-77
2022/08/27 09:33:33;;;;;;;12.13;3.42;;;;;;;36.80;25.83;97592.87;4425278;32;20132;-78
2022/08/27 09:36:20;;;;;;;10.85;3.37;;;;;;;36.26;26.27;97583.56;4425435;32;20081;-77
2022/08/27 09:39:02;;;;;;;15.55;3.55;;;;;;;34.64;27.89;97584.28;4424463;32;20081;-77
2022/08/27 09:41:34;;;;;;;10.13;3.75;;;;;;;35.62;27.41;97587.16;4425116;32;20158;-77
2022/08/27 09:44:08;;;;;;;14.02;3.92;;;;;;;36.87;25.60;97590.03;4424391;32;20157;-77
2022/08/27 09:46:35;;;;;;;11.77;3.67;;;;;;;37.82;24.45;97591.69;4425493;32;20104;-78
2022/08/27 09:49:11;;;;;;;11.57;3.97;;;;;;;39.76;22.14;97599.56;4424925;32;20141;-78
2022/08/27 09:51:41;;;;;;;15.90;3.78;;;;;;;37.01;24.90;97584.09;4425448;32;20101;-77
2022/08/27 09:54:09;;;;;;;12.57;3.80;;;;;;;38.24;23.93;97594.63;4424239;32;20490;-77
2022/08/27 09:56:39;;;;;;;11.30;3.70;;;;;;;37.86;24.26;97587.44;4436886;32;20105;-78
2022/08/27 09:59:25;;;;;;;15.55;3.83;;;;;;;37.47;24.69;97587.47;4424178;32;20077;-77
2022/08/27 10:01:54;;;;;;;15.23;4.15;;;;;;;36.36;25.72;97594.53;4425021;32;20102;-77
2022/08/27 10:04:46;;;;;;;14.70;4.07;;;;;;;38.76;23.24;97592.16;4425017;32;20440;-78
2022/08/27 10:07:41;;;;;;;13.05;3.90;;;;;;;38.14;23.70;97583.72;4425278;32;20094;-78
2022/08/27 10:10:16;;;;;;;14.35;4.20;;;;;;;38.60;24.28;97587.69;4424928;32;20663;-77
2022/08/27 10:12:57;;;;;;;15.45;3.53;;;;;;;38.61;24.47;97588.50;4425104;32;20421;-77
2022/08/27 10:15:29;;;;;;;12.75;3.78;;;;;;;36.41;25.72;97571.25;4424849;32;20151;-77
2022/08/27 10:18:03;;;;;;;13.90;3.90;;;;;;;37.15;25.30;97578.38;4425202;32;20173;-77
2022/08/27 10:20:41;;;;;;;14.25;3.87;;;;;;;36.15;26.81;97577.19;4424034;32;20120;-77
2022/08/27 10:23:23;;;;;;;19.83;4.20;;;;;;;37.18;25.22;97591.31;4423610;32;20128;-77
2022/08/27 10:26:00;;;;;;;12.02;3.97;;;;;;;38.85;23.22;97584.41;4424036;32;20523;-78
2022/08/27 10:28:39;;;;;;;14.13;4.00;;;;;;;38.91;22.85;97588.75;4425159;32;20085;-78
2022/08/27 10:31:16;;;;;;;10.93;3.92;;;;;;;39.37;22.73;97585.59;4424785;32;20124;-78
2022/08/27 10:33:49;;;;;;;16.83;4.37;;;;;;;37.81;24.15;97576.59;4425041;32;20115;-78
2022/08/27 10:36:40;;;;;;;19.65;3.67;;;;;;;37.88;24.11;97580.75;4425245;32;20263;-77
2022/08/27 10:39:10;;;;;;;15.63;3.95;;;;;;;35.89;26.52;97584.78;4425036;32;20443;-77
2022/08/27 10:42:25;;;;;;;11.02;3.47;;;;;;;37.03;25.67;97583.84;4424888;32;20158;-77
2022/08/27 10:45:03;;;;;;;12.82;4.30;;;;;;;37.53;24.95;97578.38;4416251;32;20110;-78
2022/08/27 10:47:39;;;;;;;14.93;4.03;;;;;;;37.25;25.50;97576.66;4423851;32;20455;-78
2022/08/27 10:50:23;;;;;;;12.20;3.53;;;;;;;38.69;23.81;97583.47;4424670;32;20145;-78
2022/08/27 10:52:54;;;;;;;13.13;4.20;;;;;;;38.98;23.73;97573.19;4436463;32;20086;-78
2022/08/27 10:55:25;;;;;;;12.07;4.53;;;;;;;39.42;22.63;97583.72;4424758;32;20153;-78
2022/08/27 10:58:14;;;;;;;13.07;4.32;;;;;;;39.10;22.87;97577.56;4423314;32;20105;-78
2022/08/27 11:00:58;;;;;;;13.77;4.07;;;;;;;36.89;25.45;97566.41;4424706;32;20108;-78
2022/08/27 11:03:39;;;;;;;14.40;3.83;;;;;;;37.07;25.79;97568.84;4424637;32;20078;-78
2022/08/27 11:06:22;;;;;;;15.02;4.22;;;;;;;38.52;23.95;97573.88;4424157;32;20542;-78
2022/08/27 11:08:54;;;;;;;16.12;4.45;;;;;;;39.29;23.02;97573.41;4424840;32;20137;-78
2022/08/27 11:11:37;;;;;;;13.85;4.43;;;;;;;38.02;24.57;97573.09;4423453;32;20093;-78
2022/08/27 11:14:37;;;;;;;17.17;4.40;;;;;;;39.24;22.98;97579.59;4423465;32;20103;-78
2022/08/27 11:17:08;;;;;;;12.40;4.00;;;;;;;39.30;22.75;97575.84;4423377;32;20480;-78
2022/08/27 11:19:41;;;;;;;16.98;4.40;;;;;;;39.21;22.78;97568.50;4422976;32;20479;-78
2022/08/27 11:22:19;;;;;;;12.37;4.10;;;;;;;39.05;23.67;97572.97;4424380;32;20085;-78
2022/08/27 11:25:08;;;;;;;13.73;4.00;;;;;;;37.51;24.36;97564.38;4425140;32;20089;-78
2022/08/27 11:27:36;;;;;;;13.55;3.75;;;;;;;37.85;24.20;97565.06;4425066;32;20114;-78
2022/08/27 11:30:07;;;;;;;14.02;4.15;;;;;;;37.01;25.53;97554.53;4425134;32;20120;-78
2022/08/27 11:32:33;;;;;;;10.60;4.07;;;;;;;35.17;27.74;97554.75;4426072;32;20136;-78
2022/08/27 11:35:08;;;;;;;13.48;3.78;;;;;;;36.05;27.20;97564.41;4426205;32;20074;-78
2022/08/27 11:37:45;;;;;;;12.13;4.25;;;;;;;37.49;25.12;97561.13;4425304;32;20479;-78
2022/08/27 11:40:29;;;;;;;16.73;4.90;;;;;;;38.49;25.00;97567.09;4424814;32;20469;-78
2022/08/27 11:43:02;;;;;;;9.90;4.43;;;;;;;35.89;30.01;97549.06;4425157;32;20149;-78
2022/08/27 11:45:39;;;;;;;12.27;5.28;;;;;;;35.45;31.72;97542.50;4426183;32;20425;-77
2022/08/27 11:48:24;;;;;;;10.57;4.40;;;;;;;33.61;34.34;97535.22;4425868;32;20110;-78
2022/08/27 11:50:57;;;;;;;11.90;4.50;;;;;;;33.25;35.03;97537.88;4425122;32;20162;-78
2022/08/27 11:53:32;;;;;;;16.40;4.75;;;;;;;34.25;33.52;97564.28;4426405;32;20086;-78
2022/08/27 11:56:29;;;;;;;15.45;4.85;;;;;;;36.11;30.07;97558.06;4426349;32;20100;-78